createdAt,value
2022-10-30T00:02:05.903Z,8.20
2022-10-30T00:04:32.934Z,8.20
2022-10-30T00:06:59.718Z,8.30
2022-10-30T00:09:26.611Z,8.20
2022-10-30T00:11:53.483Z,8.00
2022-10-30T00:14:20.421Z,8.00
2022-10-30T00:16:47.489Z,8.00
2022-10-30T00:19:14.410Z,7.90
2022-10-30T00:21:41.528Z,7.80
2022-10-30T00:24:08.714Z,7.80
2022-10-30T00:26:35.518Z,7.90
2022-10-30T00:29:02.510Z,8.00
2022-10-30T00:31:29.339Z,8.20
2022-10-30T00:33:56.262Z,8.40
2022-10-30T00:36:23.815Z,8.40
2022-10-30T00:38:50.728Z,8.50
2022-10-30T00:41:18.510Z,8.60
2022-10-30T00:43:45.505Z,8.70
2022-10-30T00:46:26.751Z,8.80
2022-10-30T00:49:01.397Z,8.80
2022-10-30T00:51:29.141Z,8.90
2022-10-30T00:53:56.731Z,9.00
2022-10-30T00:56:23.886Z,9.00
2022-10-30T00:59:02.392Z,9.00
2022-10-30T01:01:29.997Z,9.10
2022-10-30T01:03:58.606Z,9.20
2022-10-30T01:06:26.777Z,9.20
2022-10-30T01:08:58.814Z,9.20
2022-10-30T01:11:27.489Z,9.20
2022-10-30T01:13:55.391Z,9.20
2022-10-30T01:16:28.446Z,9.10
2022-10-30T01:18:57.527Z,9.30
2022-10-30T01:21:30.425Z,9.20
2022-10-30T01:24:14.737Z,9.00
2022-10-30T01:26:44.581Z,9.10
2022-10-30T01:29:20.264Z,9.00
2022-10-30T01:31:47.045Z,9.00
2022-10-30T01:34:18.745Z,8.90
2022-10-30T01:36:50.698Z,9.00
2022-10-30T01:39:22.808Z,8.90
2022-10-30T01:41:49.823Z,9.00
2022-10-30T01:44:19.068Z,8.80
2022-10-30T01:47:00.361Z,8.80
2022-10-30T01:49:36.322Z,8.80
2022-10-30T01:52:15.639Z,8.80
2022-10-30T01:55:01.360Z,8.80
2022-10-30T01:57:31.317Z,8.80
2022-10-30T02:00:08.712Z,8.70
2022-10-30T02:02:35.804Z,8.70
2022-10-30T02:05:03.634Z,8.70
2022-10-30T02:07:30.545Z,8.70
2022-10-30T02:09:57.518Z,8.70
2022-10-30T02:12:24.684Z,8.60
2022-10-30T02:14:54.644Z,8.60
2022-10-30T02:17:21.650Z,8.60
2022-10-30T02:19:48.724Z,8.60
2022-10-30T02:22:16.893Z,8.60
2022-10-30T02:24:44.245Z,8.50
2022-10-30T02:27:11.292Z,8.60
2022-10-30T02:29:38.395Z,8.50
2022-10-30T02:32:05.197Z,8.50
2022-10-30T02:34:32.307Z,8.50
2022-10-30T02:36:59.303Z,8.50
2022-10-30T02:39:26.363Z,8.40
2022-10-30T02:41:53.369Z,8.50
2022-10-30T02:44:23.500Z,8.50
2022-10-30T02:46:50.660Z,8.40
2022-10-30T02:49:17.730Z,8.40
2022-10-30T02:51:44.851Z,8.40
2022-10-30T02:54:13.920Z,8.30
2022-10-30T02:56:40.977Z,8.40
2022-10-30T02:59:07.998Z,8.30
2022-10-30T03:01:35.269Z,8.30
2022-10-30T03:04:02.142Z,8.20
2022-10-30T03:06:29.142Z,8.20
2022-10-30T03:08:56.015Z,8.30
2022-10-30T03:11:23.200Z,8.20
2022-10-30T03:13:50.173Z,8.20
2022-10-30T03:16:17.091Z,8.20
2022-10-30T03:18:44.454Z,8.10
2022-10-30T03:21:13.096Z,8.10
2022-10-30T03:23:40.101Z,8.10
2022-10-30T03:26:07.146Z,8.10
2022-10-30T03:28:34.034Z,8.10
2022-10-30T03:31:02.066Z,8.10
2022-10-30T03:33:29.312Z,8.10
2022-10-30T03:35:56.146Z,8.20
2022-10-30T03:38:23.345Z,8.20
2022-10-30T03:40:50.414Z,8.10
2022-10-30T03:43:17.694Z,8.10
2022-10-30T03:45:48.668Z,7.90
2022-10-30T03:48:16.239Z,7.80
2022-10-30T03:50:43.014Z,7.80
2022-10-30T03:53:10.512Z,7.80
2022-10-30T03:55:37.342Z,7.70
2022-10-30T03:58:04.781Z,7.70
2022-10-30T04:00:32.258Z,7.70
2022-10-30T04:02:59.788Z,7.70
2022-10-30T04:05:27.903Z,7.70
2022-10-30T04:07:59.326Z,7.80
2022-10-30T04:10:26.466Z,7.70
2022-10-30T04:12:55.056Z,7.70
2022-10-30T04:15:22.011Z,7.70
2022-10-30T04:17:50.201Z,7.70
2022-10-30T04:20:17.474Z,7.70
2022-10-30T04:22:44.398Z,7.70
2022-10-30T04:25:11.257Z,7.80
2022-10-30T04:27:42.048Z,7.80
2022-10-30T04:30:10.303Z,7.70
2022-10-30T04:32:37.384Z,7.70
2022-10-30T04:35:04.483Z,7.70
2022-10-30T04:37:31.766Z,7.70
2022-10-30T04:39:58.730Z,7.70
2022-10-30T04:42:25.909Z,7.80
2022-10-30T04:44:52.927Z,7.80
2022-10-30T04:47:19.960Z,7.80
2022-10-30T04:49:46.916Z,7.90
2022-10-30T04:52:14.036Z,7.80
2022-10-30T04:54:40.868Z,7.70
2022-10-30T04:57:07.968Z,7.70
2022-10-30T04:59:34.890Z,7.60
2022-10-30T05:02:01.978Z,7.70
2022-10-30T05:04:29.057Z,7.60
2022-10-30T05:06:57.080Z,7.60
2022-10-30T05:09:23.873Z,7.60
2022-10-30T05:11:50.764Z,7.70
2022-10-30T05:14:17.728Z,7.80
2022-10-30T05:16:44.654Z,7.80
2022-10-30T05:19:11.625Z,7.80
2022-10-30T05:21:38.595Z,7.80
2022-10-30T05:24:05.571Z,7.80
2022-10-30T05:26:32.470Z,7.80
2022-10-30T05:28:59.481Z,7.70
2022-10-30T05:31:26.334Z,7.80
2022-10-30T05:33:53.446Z,7.80
2022-10-30T05:36:20.692Z,7.80
2022-10-30T05:38:51.106Z,7.90
2022-10-30T05:41:18.102Z,7.90
2022-10-30T05:43:44.927Z,7.90
2022-10-30T05:46:12.018Z,8.00
2022-10-30T05:48:38.951Z,7.90
2022-10-30T05:51:07.094Z,8.00
2022-10-30T05:53:34.459Z,8.00
2022-10-30T05:56:01.230Z,8.00
2022-10-30T05:58:28.216Z,8.00
2022-10-30T06:00:55.105Z,7.90
2022-10-30T06:03:22.020Z,8.00
2022-10-30T06:05:49.008Z,8.10
2022-10-30T06:08:16.449Z,8.10
2022-10-30T06:10:43.332Z,8.20
2022-10-30T06:13:10.449Z,8.20
2022-10-30T06:15:37.367Z,8.20
2022-10-30T06:18:04.420Z,8.10
2022-10-30T06:20:31.381Z,8.10
2022-10-30T06:22:59.286Z,8.10
2022-10-30T06:25:26.736Z,8.00
2022-10-30T06:27:54.031Z,8.10
2022-10-30T06:30:21.640Z,8.00
2022-10-30T06:32:49.013Z,8.10
2022-10-30T06:35:16.580Z,8.20
2022-10-30T06:37:49.880Z,8.20
2022-10-30T06:40:17.279Z,8.20
2022-10-30T06:42:47.497Z,8.20
2022-10-30T06:45:14.853Z,8.10
2022-10-30T06:47:42.178Z,8.10
2022-10-30T06:50:10.660Z,8.20
2022-10-30T06:52:37.709Z,8.10
2022-10-30T06:55:05.325Z,8.10
2022-10-30T06:57:32.236Z,8.10
2022-10-30T06:59:59.204Z,8.20
2022-10-30T07:02:26.089Z,8.10
2022-10-30T07:04:55.025Z,8.10
2022-10-30T07:07:23.271Z,8.10
2022-10-30T07:09:51.306Z,8.10
2022-10-30T07:12:18.357Z,8.00
2022-10-30T07:14:45.380Z,8.00
2022-10-30T07:17:12.225Z,8.00
2022-10-30T07:19:39.231Z,8.00
2022-10-30T07:22:06.462Z,8.10
2022-10-30T07:24:33.421Z,8.10
2022-10-30T07:27:00.439Z,8.10
2022-10-30T07:29:27.186Z,8.10
2022-10-30T07:32:08.841Z,8.20
2022-10-30T07:34:35.762Z,8.20
2022-10-30T07:37:02.890Z,8.40
2022-10-30T07:39:29.958Z,8.30
2022-10-30T07:41:56.846Z,8.30
2022-10-30T07:44:23.648Z,8.30
2022-10-30T07:46:50.540Z,8.40
2022-10-30T07:49:17.449Z,8.30
2022-10-30T07:51:44.312Z,8.30
2022-10-30T07:54:11.245Z,8.50
2022-10-30T07:56:38.266Z,8.40
2022-10-30T07:59:06.028Z,8.40
2022-10-30T08:01:33.189Z,8.40
2022-10-30T08:04:00.432Z,8.40
2022-10-30T08:06:27.739Z,8.50
2022-10-30T08:08:54.559Z,8.40
2022-10-30T08:11:21.409Z,8.40
2022-10-30T08:13:48.367Z,8.50
2022-10-30T08:16:15.333Z,8.60
2022-10-30T08:18:42.680Z,8.60
2022-10-30T08:21:10.044Z,8.60
2022-10-30T08:23:37.274Z,8.60
2022-10-30T08:26:05.505Z,8.60
2022-10-30T08:28:33.242Z,8.60
2022-10-30T08:31:01.104Z,8.70
2022-10-30T08:33:28.481Z,8.70
2022-10-30T08:35:59.402Z,8.90
2022-10-30T08:38:27.053Z,9.10
2022-10-30T08:40:54.632Z,9.20
2022-10-30T08:43:22.157Z,9.20
2022-10-30T08:45:49.266Z,9.30
2022-10-30T08:48:16.960Z,9.30
2022-10-30T08:50:43.925Z,9.40
2022-10-30T08:53:12.126Z,9.30
2022-10-30T08:55:38.975Z,9.40
2022-10-30T08:58:05.795Z,9.40
2022-10-30T09:00:32.741Z,9.40
2022-10-30T09:02:59.905Z,9.40
2022-10-30T09:05:27.186Z,9.40
2022-10-30T09:07:58.676Z,9.50
2022-10-30T09:10:25.845Z,9.50
2022-10-30T09:12:56.534Z,9.60
2022-10-30T09:15:23.518Z,9.70
2022-10-30T09:18:01.302Z,9.60
2022-10-30T09:20:28.992Z,9.50
2022-10-30T09:22:56.396Z,9.60
2022-10-30T09:25:23.860Z,9.60
2022-10-30T09:27:50.767Z,9.60
2022-10-30T09:30:17.580Z,9.60
2022-10-30T09:32:44.722Z,9.50
2022-10-30T09:35:11.707Z,9.60
2022-10-30T09:37:39.199Z,9.70
2022-10-30T09:40:07.339Z,9.80
2022-10-30T09:42:37.789Z,9.90
2022-10-30T09:47:54.568Z,10.00
2022-10-30T09:50:41.636Z,10.00
2022-10-30T09:53:17.603Z,10.00
2022-10-30T09:55:52.105Z,10.00
2022-10-30T09:58:28.165Z,10.00
2022-10-30T10:01:16.112Z,10.00
2022-10-30T10:06:25.128Z,10.00
2022-10-30T10:09:06.739Z,10.00
2022-10-30T10:11:37.306Z,10.00
2022-10-30T10:14:08.667Z,9.90
2022-10-30T10:16:38.363Z,9.90
2022-10-30T10:19:24.045Z,9.90
2022-10-30T10:21:57.891Z,9.90
2022-10-30T10:24:35.589Z,10.00
2022-10-30T10:27:05.803Z,9.90
2022-10-30T10:29:48.103Z,9.90
2022-10-30T10:32:14.926Z,9.90
2022-10-30T10:35:08.024Z,10.00
2022-10-30T10:37:39.356Z,10.00
2022-10-30T10:40:19.060Z,10.00
2022-10-30T10:43:12.221Z,10.00
2022-10-30T10:45:54.514Z,10.00
2022-10-30T10:48:25.594Z,10.00
2022-10-30T10:50:56.438Z,10.00
2022-10-30T10:53:26.144Z,10.00
2022-10-30T10:55:54.905Z,10.00
2022-10-30T10:58:32.402Z,10.10
2022-10-30T11:01:00.214Z,10.20
2022-10-30T11:03:32.820Z,10.20
2022-10-30T11:06:04.960Z,10.20
2022-10-30T11:08:32.802Z,10.20
2022-10-30T11:11:03.562Z,10.10
2022-10-30T11:13:40.919Z,10.10
2022-10-30T11:16:19.076Z,10.00
2022-10-30T11:18:46.551Z,10.00
2022-10-30T11:21:19.802Z,10.00
2022-10-30T11:23:47.978Z,10.10
2022-10-30T11:26:17.884Z,10.10
2022-10-30T11:28:56.096Z,10.10
2022-10-30T11:31:38.113Z,10.00
2022-10-30T11:34:13.837Z,10.00
2022-10-30T11:36:40.721Z,9.90
2022-10-30T11:39:31.003Z,10.00
2022-10-30T11:42:07.025Z,10.10
2022-10-30T11:44:36.064Z,10.10
2022-10-30T11:47:03.335Z,10.20
2022-10-30T11:49:33.246Z,10.30
2022-10-30T11:52:00.499Z,10.20
2022-10-30T11:54:27.626Z,10.20
2022-10-30T11:56:54.987Z,10.20
2022-10-30T11:59:22.960Z,10.30
2022-10-30T12:02:19.746Z,10.30
2022-10-30T12:04:46.647Z,10.20
2022-10-30T12:07:22.737Z,10.30
2022-10-30T12:09:50.168Z,10.40
2022-10-30T12:12:28.302Z,10.50
2022-10-30T12:14:55.424Z,10.60
2022-10-30T12:17:22.895Z,10.60
2022-10-30T12:19:51.164Z,10.60
2022-10-30T12:22:34.099Z,10.60
2022-10-30T12:25:02.948Z,10.50
2022-10-30T12:27:31.153Z,10.60
2022-10-30T12:30:08.319Z,10.70
2022-10-30T12:32:44.151Z,10.60
2022-10-30T12:35:18.115Z,10.50
2022-10-30T12:37:45.020Z,10.50
2022-10-30T12:40:11.871Z,10.50
2022-10-30T12:42:43.149Z,10.50
2022-10-30T12:45:28.793Z,10.50
2022-10-30T12:48:06.262Z,10.60
2022-10-30T12:50:39.068Z,10.60
2022-10-30T12:53:15.785Z,10.50
2022-10-30T12:55:45.525Z,10.60
2022-10-30T12:58:18.421Z,10.50
2022-10-30T13:00:52.277Z,10.50
2022-10-30T13:03:35.859Z,10.40
2022-10-30T13:06:07.040Z,10.40
2022-10-30T13:08:38.954Z,10.30
2022-10-30T13:11:05.831Z,10.40
2022-10-30T13:13:34.757Z,10.40
2022-10-30T13:16:03.240Z,10.40
2022-10-30T13:18:33.882Z,10.40
2022-10-30T13:21:06.765Z,10.40
2022-10-30T13:23:36.610Z,10.30
2022-10-30T13:26:08.372Z,10.30
2022-10-30T13:28:58.641Z,10.30
2022-10-30T13:31:28.541Z,10.20
2022-10-30T13:34:01.254Z,10.20
2022-10-30T13:36:33.355Z,10.10
2022-10-30T13:39:20.452Z,10.20
2022-10-30T13:41:59.762Z,10.10
2022-10-30T13:44:34.121Z,10.10
2022-10-30T13:47:10.257Z,10.10
2022-10-30T13:49:43.028Z,10.10
2022-10-30T13:52:22.863Z,10.10
2022-10-30T13:54:55.841Z,10.10
2022-10-30T13:57:34.987Z,10.10
2022-10-30T14:00:01.884Z,10.10
2022-10-30T14:02:34.831Z,10.10
2022-10-30T14:05:15.661Z,10.10
2022-10-30T14:07:46.384Z,10.10
2022-10-30T14:10:22.447Z,10.00
2022-10-30T14:12:55.221Z,10.00
2022-10-30T14:15:33.571Z,10.00
2022-10-30T14:18:12.856Z,10.00
2022-10-30T14:20:46.475Z,10.00
2022-10-30T14:23:21.532Z,9.90
2022-10-30T14:26:04.084Z,9.90
2022-10-30T14:28:35.206Z,9.90
2022-10-30T14:31:06.179Z,9.80
2022-10-30T14:33:46.905Z,9.70
2022-10-30T14:36:19.819Z,9.80
2022-10-30T14:38:59.183Z,9.80
2022-10-30T14:41:45.950Z,9.80
2022-10-30T14:44:28.052Z,9.70
2022-10-30T14:47:12.623Z,9.70
2022-10-30T14:50:17.907Z,9.60
2022-10-30T14:53:05.623Z,9.60
2022-10-30T14:55:36.475Z,9.60
2022-10-30T14:58:03.366Z,9.60
2022-10-30T15:00:32.818Z,9.50
2022-10-30T15:03:23.792Z,9.40
2022-10-30T15:05:58.875Z,9.40
2022-10-30T15:08:28.638Z,9.30
2022-10-30T15:10:58.051Z,9.30
2022-10-30T15:13:25.207Z,9.30
2022-10-30T15:16:18.282Z,9.20
2022-10-30T15:18:48.213Z,9.20
2022-10-30T15:21:21.251Z,9.10
2022-10-30T15:23:48.058Z,9.10
2022-10-30T15:26:20.421Z,9.00
2022-10-30T15:28:49.857Z,9.00
2022-10-30T15:31:24.858Z,8.90
2022-10-30T15:33:52.234Z,8.80
2022-10-30T15:36:23.357Z,8.80
2022-10-30T15:39:09.030Z,8.70
2022-10-30T15:41:40.273Z,8.70
2022-10-30T15:44:07.236Z,8.60
2022-10-30T15:46:34.203Z,8.60
2022-10-30T15:49:01.147Z,8.60
2022-10-30T15:51:28.334Z,8.60
2022-10-30T15:54:00.443Z,8.50
2022-10-30T15:56:27.203Z,8.50
2022-10-30T15:58:56.071Z,8.50
2022-10-30T16:01:33.310Z,8.40
2022-10-30T16:04:00.516Z,8.40
2022-10-30T16:06:28.736Z,8.40
2022-10-30T16:08:55.710Z,8.20
2022-10-30T16:11:23.463Z,8.20
2022-10-30T16:13:50.702Z,8.20
2022-10-30T16:16:22.872Z,8.20
2022-10-30T16:18:49.800Z,8.20
2022-10-30T16:21:18.744Z,8.10
2022-10-30T16:23:50.417Z,8.00
2022-10-30T16:26:34.353Z,8.00
2022-10-30T16:29:21.281Z,7.90
2022-10-30T16:31:50.211Z,7.90
2022-10-30T16:34:31.881Z,7.80
2022-10-30T16:36:59.382Z,7.80
2022-10-30T16:39:26.495Z,7.70
2022-10-30T16:41:56.477Z,7.70
2022-10-30T16:44:49.843Z,7.70
2022-10-30T16:47:16.756Z,7.60
2022-10-30T16:49:48.565Z,7.50
2022-10-30T16:52:17.202Z,7.50
2022-10-30T16:54:49.144Z,7.50
2022-10-30T16:57:18.370Z,7.50
2022-10-30T16:59:47.286Z,7.50
2022-10-30T17:02:16.367Z,7.40
2022-10-30T17:04:45.327Z,7.30
2022-10-30T17:07:18.809Z,7.20
2022-10-30T17:09:47.525Z,7.10
2022-10-30T17:12:16.371Z,7.00
2022-10-30T17:15:04.528Z,6.80
2022-10-30T17:17:36.199Z,6.80
2022-10-30T17:20:15.250Z,6.80
2022-10-30T17:22:42.250Z,6.80
2022-10-30T17:25:28.404Z,6.70
2022-10-30T17:27:55.443Z,6.70
2022-10-30T17:30:34.645Z,6.70
2022-10-30T17:33:03.151Z,6.60
2022-10-30T17:35:30.242Z,6.60
2022-10-30T17:37:59.918Z,6.60
2022-10-30T17:40:29.660Z,6.60
2022-10-30T17:42:56.608Z,6.60
2022-10-30T17:45:23.613Z,6.50
2022-10-30T17:47:50.715Z,6.50
2022-10-30T17:50:17.512Z,6.40
2022-10-30T17:52:44.527Z,6.40
2022-10-30T17:55:26.315Z,6.40
2022-10-30T17:57:53.457Z,6.30
2022-10-30T18:00:20.749Z,6.30
2022-10-30T18:02:47.804Z,6.30
2022-10-30T18:05:17.166Z,6.20
2022-10-30T18:07:44.503Z,6.20
2022-10-30T18:10:12.162Z,6.10
2022-10-30T18:12:39.306Z,6.10
2022-10-30T18:15:16.893Z,6.00
2022-10-30T18:17:43.850Z,6.00
2022-10-30T18:20:10.863Z,5.90
2022-10-30T18:22:37.965Z,5.90
2022-10-30T18:25:14.483Z,5.90
2022-10-30T18:27:41.534Z,5.90
2022-10-30T18:30:08.874Z,5.90
2022-10-30T18:32:36.142Z,5.90
2022-10-30T18:35:10.166Z,5.90
2022-10-30T18:37:37.110Z,5.90
2022-10-30T18:40:04.192Z,5.90
2022-10-30T18:42:31.269Z,5.90
2022-10-30T18:44:58.141Z,5.80
2022-10-30T18:47:24.940Z,5.70
2022-10-30T18:49:53.916Z,5.70
2022-10-30T18:52:20.755Z,5.60
2022-10-30T18:54:47.565Z,5.60
2022-10-30T18:57:14.502Z,5.60
2022-10-30T18:59:41.301Z,5.50
2022-10-30T19:02:20.721Z,5.50
2022-10-30T19:04:47.658Z,5.40
2022-10-30T19:07:14.437Z,5.40
2022-10-30T19:09:42.156Z,5.30
2022-10-30T19:12:10.716Z,5.30
2022-10-30T19:14:37.556Z,5.30
2022-10-30T19:17:04.587Z,5.30
2022-10-30T19:19:31.481Z,5.20
2022-10-30T19:21:58.429Z,5.30
2022-10-30T19:24:25.456Z,5.30
2022-10-30T19:26:52.247Z,5.30
2022-10-30T19:29:19.227Z,5.30
2022-10-30T19:31:46.181Z,5.40
2022-10-30T19:34:13.132Z,5.30
2022-10-30T19:36:39.882Z,5.30
2022-10-30T19:39:11.750Z,5.20
2022-10-30T19:41:41.577Z,5.20
2022-10-30T19:44:08.537Z,5.10
2022-10-30T19:46:36.193Z,5.10
2022-10-30T19:49:29.445Z,5.00
2022-10-30T19:51:56.327Z,5.00
2022-10-30T19:54:23.312Z,5.00
2022-10-30T19:56:50.219Z,4.90
2022-10-30T19:59:17.261Z,5.00
2022-10-30T20:01:44.987Z,5.00
2022-10-30T20:04:12.179Z,5.10
2022-10-30T20:06:38.975Z,5.10
2022-10-30T20:09:06.030Z,5.10
2022-10-30T20:11:32.843Z,5.10
2022-10-30T20:13:59.659Z,5.10
2022-10-30T20:16:26.450Z,5.10
2022-10-30T20:18:53.286Z,5.10
2022-10-30T20:21:20.755Z,5.10
2022-10-30T20:23:47.699Z,5.10
2022-10-30T20:26:24.469Z,5.10
2022-10-30T20:28:52.012Z,5.10
2022-10-30T20:31:18.928Z,5.20
2022-10-30T20:33:45.837Z,5.20
2022-10-30T20:36:15.512Z,5.20
2022-10-30T20:38:42.473Z,5.30
2022-10-30T20:41:18.605Z,5.30
2022-10-30T20:43:45.580Z,5.30
2022-10-30T20:46:12.391Z,5.30
2022-10-30T20:48:39.694Z,5.30
2022-10-30T20:51:06.897Z,5.30
2022-10-30T20:53:33.735Z,5.30
2022-10-30T20:56:00.917Z,5.30
2022-10-30T20:58:27.892Z,5.30
2022-10-30T21:00:56.248Z,5.30
2022-10-30T21:03:23.189Z,5.30
2022-10-30T21:05:55.251Z,5.40
2022-10-30T21:08:22.078Z,5.40
2022-10-30T21:10:49.265Z,5.40
2022-10-30T21:13:16.060Z,5.40
2022-10-30T21:15:44.519Z,5.40
2022-10-30T21:18:13.053Z,5.40
2022-10-30T21:20:41.375Z,5.40
2022-10-30T21:23:08.654Z,5.40
2022-10-30T21:25:35.910Z,5.30
2022-10-30T21:28:02.880Z,5.30
2022-10-30T21:30:29.743Z,5.30
2022-10-30T21:32:56.965Z,5.20
2022-10-30T21:35:24.122Z,5.20
2022-10-30T21:37:50.948Z,5.00
2022-10-30T21:40:18.085Z,5.00
2022-10-30T21:42:47.383Z,5.00
2022-10-30T21:45:14.391Z,4.90
2022-10-30T21:47:41.361Z,4.90
2022-10-30T21:50:12.296Z,4.90
2022-10-30T21:52:40.058Z,4.90
2022-10-30T21:55:07.186Z,4.80
2022-10-30T21:57:34.298Z,4.70
2022-10-30T22:00:05.495Z,4.70
2022-10-30T22:02:32.955Z,4.60
2022-10-30T22:04:59.717Z,4.60
2022-10-30T22:07:26.666Z,4.60
2022-10-30T22:09:54.299Z,4.50
2022-10-30T22:12:24.157Z,4.60
2022-10-30T22:14:51.105Z,4.50
2022-10-30T22:17:18.029Z,4.50
2022-10-30T22:19:44.881Z,4.50
2022-10-30T22:22:11.810Z,4.50
2022-10-30T22:24:38.632Z,4.50
2022-10-30T22:27:05.662Z,4.50
2022-10-30T22:29:32.449Z,4.40
2022-10-30T22:31:59.476Z,4.40
2022-10-30T22:34:26.426Z,4.40
2022-10-30T22:36:53.366Z,4.40
2022-10-30T22:39:20.219Z,4.40
2022-10-30T22:41:47.022Z,4.40
2022-10-30T22:44:15.055Z,4.50
2022-10-30T22:46:41.920Z,4.50
2022-10-30T22:49:08.945Z,4.40
2022-10-30T22:51:37.971Z,4.40
2022-10-30T22:54:06.289Z,4.50
2022-10-30T22:56:34.937Z,4.50
2022-10-30T22:59:03.107Z,4.50
2022-10-30T23:01:31.280Z,4.50
2022-10-30T23:03:59.507Z,4.50
2022-10-30T23:06:27.249Z,4.50
2022-10-30T23:08:55.291Z,4.60
2022-10-30T23:11:22.570Z,4.60
2022-10-30T23:13:49.465Z,4.60
2022-10-30T23:16:17.713Z,4.60
2022-10-30T23:18:44.957Z,4.60
2022-10-30T23:21:16.154Z,4.60
2022-10-30T23:23:43.319Z,4.60
2022-10-30T23:26:11.869Z,4.50
2022-10-30T23:28:40.223Z,4.50
2022-10-30T23:31:08.039Z,4.50
2022-10-30T23:33:34.942Z,4.50
2022-10-30T23:36:04.413Z,4.50
2022-10-30T23:38:31.437Z,4.60
2022-10-30T23:40:58.177Z,4.60
2022-10-30T23:43:25.540Z,4.60
2022-10-30T23:45:52.319Z,4.60
2022-10-30T23:48:19.253Z,4.60
2022-10-30T23:50:46.095Z,4.60
2022-10-30T23:53:12.876Z,4.50
2022-10-30T23:55:39.774Z,4.50
2022-10-30T23:58:06.703Z,4.60
